Impacts TAF Board
For situational awareness. Not to be used for flight planning purposes.
IDs:

KPGA - Page Muni, AZ, US

Issued at 1720 UTC 02 Aug 2021
Updated at 2252 UTC 02 Aug 2021
Potential Impact None Slight Moderate High
Time2153Z 02/23Z 03/00Z 03/01Z 03/02Z 03/03Z 03/04Z 03/05Z 03/06Z 03/07Z 03/08Z 03/09Z 03/10Z 03/11Z>>
Type OBS PRVL PRVL PRVL PRVL PRVL PRVL PRVL PRVL PRVL PRVL PRVL PRVL PRVL
VIS 10 >6 >6 >6 >6 >6 >6 >6 >6 >6 >6 >6 >6 >6
CIG -- -- -- -- -- -- -- -- -- -- -- -- -- --
Cover CLR SCT SCT SCT SCT SCT SCT SCT SCT SCT SCT SCT SCT SCT
FltCat VFR VFR VFR VFR VFR VFR VFR VFR VFR VFR VFR VFR VFR VFR
WX -- -- -- -- -- -- -- -- -- -- -- -- -- --
WDir 130 310 310 310 310 310 VRB VRB VRB VRB VRB VRB VRB VRB
WSpd 4 8 8 8 8 8 5 5 5 5 5 5 5 5
WGst -- 14 14 14 14 14 -- -- -- -- -- -- -- --
Raw TAF
KPGA 021720Z 0218/0318 VRB03KT P6SM SKC
  FM022200 VRB06KT P6SM VCTS FEW110CB FEW250
  FM022300 31008G14KT P6SM FEW110 SCT250
  FM030400 VRB05KT P6SM FEW110 SCT250


Raw METAR
KPGA 022153Z AUTO 13004KT 10SM CLR 34/10 A3013 RMK AO2 SLP132 T03390100
KPGA 022053Z AUTO 10SM CLR 33/10 A3017 RMK AO2 SLP143 T03330100 58025
KPGA 021953Z AUTO 10SM CLR 32/12 A3020 RMK AO2 SLP158 T03170122

METAR Board
Radar Display
Forecast Discussion
For situational awareness. Not to be used for flight planning purposes.